RDT weather

Richard Toll Airport
Richard Toll, Saint-Louis Region, Senegal

Public forecast

Using degrees Celsius for public forecast. Weather courtesy of forecast.io.

Closest aviation weather report (METAR) to Richard Toll Airport

Closest report is Podor Airport, 42.1 nm (77.9 km) ENE. Retrieved 2020/04/07 22:00 UTC (14 minutes ago):

GOSP 072200Z 36002KT CAVOK 33/11 Q1010

Closest aviation forecast (TAF) to Richard Toll Airport

Closest forecast is Saint Louis Airport, 52.2 nm (96.7 km) WSW. Retrieved 2020/04/07 18:51 UTC (3 hours ago):

TAF GOSS 071730Z 0718/0818 35012KT CAVOK